Airfield :
LOGIN :

Register | Disclaimer

   EN    FR    IT 

 










Legend :    VFR   Marginal VFR   IFR   Intensive IFR   Very Intensive IFR
Visi :
Ceiling :
>= 8 km
>= 3000ft
5 to 8 km
1000 to 3000 ft
1500m to 5 km
500 to 1000 ft
800 to 1500m
200 to 500 ft
< 800m
< 200 ft
Symbols :   Thunderstorms  Fog  Heavy snow  Heavy precipitations  Wind > 20 kt
SIGMETs :     Misc.  Thunderstorms  Icing  Turbulence  Mountain Waves  Volcanic Ashes






- Airport Elevation : 489 ft
- IATA code : GDN


EPGD - Gdansk

CURRENT METAR :
  • 190000Z 26004KT 9999 BKN009 14/14 Q1022

EXPIRED METARs :
  • 182330Z 26004KT 9999 SCT009 14/13 Q1022
  • 182300Z 25004KT 200V260 CAVOK 14/13 Q1022
  • 182230Z 26004KT CAVOK 15/13 Q1022
  • 182200Z 27005KT 230V290 CAVOK 15/13 Q1022
  • 182130Z 25004KT CAVOK 16/13 Q1022
  • 182100Z 26005KT CAVOK 16/13 Q1022
  • 182030Z 24005KT CAVOK 16/13 Q1022
  • 182000Z 25005KT CAVOK 17/13 Q1022
  • 181930Z 27008KT CAVOK 17/13 Q1022
  • 181900Z 28010KT CAVOK 18/12 Q1022

TAF COR TAF EPGD
Valid from the 19 at 00:00 until the 20 at 00:00 UTC


190000Z 1900/1924 27006KT CAVOK
TEMPO 1900/1906 BKN006 BKN010



MET'MAP, your aeronautical weather chart ! - Copyright ORBIFLY December 2007 - Disclaimer

ORBIFLY MET'MAP TEAM :

Programming & Development : Alexandra Zaïnal
Original concept : Baudouin d'Aumeries
Technical & hardware support : Manuel Goepfert
Assistance : Marc-Olivier Méhu




SOURCES & CREDITS :

   NOAA